sensor_id;sensor_type;location;lat;lon;timestamp;temperature;humidity
13409;DHT22;6775;49.574;11.170;2022-07-23T00:00:50;21.20;99.90
13409;DHT22;6775;49.574;11.170;2022-07-23T00:03:18;21.30;99.90
13409;DHT22;6775;49.574;11.170;2022-07-23T00:05:46;21.40;99.90
13409;DHT22;6775;49.574;11.170;2022-07-23T00:08:14;21.40;99.90
13409;DHT22;6775;49.574;11.170;2022-07-23T00:10:42;21.40;99.90
13409;DHT22;6775;49.574;11.170;2022-07-23T00:13:10;21.30;99.90
13409;DHT22;6775;49.574;11.170;2022-07-23T00:15:38;21.20;99.90
13409;DHT22;6775;49.574;11.170;2022-07-23T00:18:07;21.10;99.90
13409;DHT22;6775;49.574;11.170;2022-07-23T00:20:35;21.00;99.90
13409;DHT22;6775;49.574;11.170;2022-07-23T00:23:03;21.00;99.90
13409;DHT22;6775;49.574;11.170;2022-07-23T00:25:31;20.90;99.90
13409;DHT22;6775;49.574;11.170;2022-07-23T00:28:02;20.80;99.90
13409;DHT22;6775;49.574;11.170;2022-07-23T00:30:31;20.60;99.90
13409;DHT22;6775;49.574;11.170;2022-07-23T00:33:01;20.70;99.90
13409;DHT22;6775;49.574;11.170;2022-07-23T00:35:33;20.60;99.90
13409;DHT22;6775;49.574;11.170;2022-07-23T00:38:02;20.60;99.90
13409;DHT22;6775;49.574;11.170;2022-07-23T00:40:31;20.60;99.90
13409;DHT22;6775;49.574;11.170;2022-07-23T00:43:00;20.60;99.90
13409;DHT22;6775;49.574;11.170;2022-07-23T00:45:28;20.50;99.90
13409;DHT22;6775;49.574;11.170;2022-07-23T00:47:57;20.40;99.90
13409;DHT22;6775;49.574;11.170;2022-07-23T00:50:25;20.40;99.90
13409;DHT22;6775;49.574;11.170;2022-07-23T00:52:55;20.40;99.90
13409;DHT22;6775;49.574;11.170;2022-07-23T00:55:23;20.30;99.90
13409;DHT22;6775;49.574;11.170;2022-07-23T00:57:53;20.20;99.90
13409;DHT22;6775;49.574;11.170;2022-07-23T01:00:21;20.20;99.90
13409;DHT22;6775;49.574;11.170;2022-07-23T01:02:50;20.20;99.90
13409;DHT22;6775;49.574;11.170;2022-07-23T01:05:18;20.20;99.90
13409;DHT22;6775;49.574;11.170;2022-07-23T01:07:49;20.10;99.90
13409;DHT22;6775;49.574;11.170;2022-07-23T01:10:23;20.10;99.90
13409;DHT22;6775;49.574;11.170;2022-07-23T01:13:04;20.10;99.90
13409;DHT22;6775;49.574;11.170;2022-07-23T01:15:33;20.00;99.90
13409;DHT22;6775;49.574;11.170;2022-07-23T01:18:02;20.00;99.90
13409;DHT22;6775;49.574;11.170;2022-07-23T01:20:30;20.00;99.90
13409;DHT22;6775;49.574;11.170;2022-07-23T01:23:00;20.00;99.90
13409;DHT22;6775;49.574;11.170;2022-07-23T01:25:28;20.00;99.90
13409;DHT22;6775;49.574;11.170;2022-07-23T01:27:56;19.90;99.90
13409;DHT22;6775;49.574;11.170;2022-07-23T01:30:24;20.00;99.90
13409;DHT22;6775;49.574;11.170;2022-07-23T01:32:52;20.00;99.90
13409;DHT22;6775;49.574;11.170;2022-07-23T01:35:20;20.00;99.90
13409;DHT22;6775;49.574;11.170;2022-07-23T01:37:48;20.00;99.90
13409;DHT22;6775;49.574;11.170;2022-07-23T01:40:17;20.10;99.90
13409;DHT22;6775;49.574;11.170;2022-07-23T01:42:50;20.10;99.90
13409;DHT22;6775;49.574;11.170;2022-07-23T01:45:18;20.10;99.90
13409;DHT22;6775;49.574;11.170;2022-07-23T01:47:47;20.10;99.90
13409;DHT22;6775;49.574;11.170;2022-07-23T01:50:15;20.10;99.90
13409;DHT22;6775;49.574;11.170;2022-07-23T01:52:43;20.10;99.90
13409;DHT22;6775;49.574;11.170;2022-07-23T01:55:11;20.10;99.90
13409;DHT22;6775;49.574;11.170;2022-07-23T01:57:46;20.20;99.90
13409;DHT22;6775;49.574;11.170;2022-07-23T02:00:14;20.20;99.90
13409;DHT22;6775;49.574;11.170;2022-07-23T02:02:42;20.20;99.90
13409;DHT22;6775;49.574;11.170;2022-07-23T02:05:10;20.10;99.90
13409;DHT22;6775;49.574;11.170;2022-07-23T02:07:38;20.10;99.90
13409;DHT22;6775;49.574;11.170;2022-07-23T02:10:07;20.10;99.90
13409;DHT22;6775;49.574;11.170;2022-07-23T02:12:35;20.10;99.90
13409;DHT22;6775;49.574;11.170;2022-07-23T02:15:05;20.10;99.90
13409;DHT22;6775;49.574;11.170;2022-07-23T02:17:35;20.20;99.90
13409;DHT22;6775;49.574;11.170;2022-07-23T02:20:05;20.10;99.90
13409;DHT22;6775;49.574;11.170;2022-07-23T02:22:33;20.20;99.90
13409;DHT22;6775;49.574;11.170;2022-07-23T02:25:00;20.10;99.90
13409;DHT22;6775;49.574;11.170;2022-07-23T02:27:28;20.10;99.90
13409;DHT22;6775;49.574;11.170;2022-07-23T02:29:56;20.00;99.90
13409;DHT22;6775;49.574;11.170;2022-07-23T02:32:26;19.90;99.90
13409;DHT22;6775;49.574;11.170;2022-07-23T02:34:54;19.90;99.90
13409;DHT22;6775;49.574;11.170;2022-07-23T02:37:22;19.90;99.90
13409;DHT22;6775;49.574;11.170;2022-07-23T02:39:50;19.90;99.90
13409;DHT22;6775;49.574;11.170;2022-07-23T02:42:17;19.80;99.90
13409;DHT22;6775;49.574;11.170;2022-07-23T02:44:45;19.70;99.90
13409;DHT22;6775;49.574;11.170;2022-07-23T02:47:13;19.80;99.90
13409;DHT22;6775;49.574;11.170;2022-07-23T02:49:42;19.70;99.90
13409;DHT22;6775;49.574;11.170;2022-07-23T02:52:10;19.70;99.90
13409;DHT22;6775;49.574;11.170;2022-07-23T02:54:38;19.60;99.90
13409;DHT22;6775;49.574;11.170;2022-07-23T02:57:06;19.60;99.90
13409;DHT22;6775;49.574;11.170;2022-07-23T02:59:34;19.60;99.90
13409;DHT22;6775;49.574;11.170;2022-07-23T03:02:02;19.50;99.90
13409;DHT22;6775;49.574;11.170;2022-07-23T03:04:30;19.50;99.90
13409;DHT22;6775;49.574;11.170;2022-07-23T03:06:59;19.40;99.90
13409;DHT22;6775;49.574;11.170;2022-07-23T03:09:27;19.40;99.90
13409;DHT22;6775;49.574;11.170;2022-07-23T03:11:55;19.30;99.90
13409;DHT22;6775;49.574;11.170;2022-07-23T03:14:22;19.20;99.90
13409;DHT22;6775;49.574;11.170;2022-07-23T03:16:50;19.20;99.90
13409;DHT22;6775;49.574;11.170;2022-07-23T03:19:20;19.10;99.90
13409;DHT22;6775;49.574;11.170;2022-07-23T03:21:48;19.00;99.90
13409;DHT22;6775;49.574;11.170;2022-07-23T03:24:17;19.00;99.90
13409;DHT22;6775;49.574;11.170;2022-07-23T03:26:45;19.00;99.90
13409;DHT22;6775;49.574;11.170;2022-07-23T03:29:13;19.00;99.90
13409;DHT22;6775;49.574;11.170;2022-07-23T03:31:41;19.00;99.90
13409;DHT22;6775;49.574;11.170;2022-07-23T03:34:09;19.00;99.90
13409;DHT22;6775;49.574;11.170;2022-07-23T03:36:36;19.00;99.90
13409;DHT22;6775;49.574;11.170;2022-07-23T03:39:04;18.90;99.90
13409;DHT22;6775;49.574;11.170;2022-07-23T03:41:39;18.80;99.90
13409;DHT22;6775;49.574;11.170;2022-07-23T03:44:07;18.80;99.90
13409;DHT22;6775;49.574;11.170;2022-07-23T03:46:35;18.80;99.90
13409;DHT22;6775;49.574;11.170;2022-07-23T03:49:03;18.80;99.90
13409;DHT22;6775;49.574;11.170;2022-07-23T03:51:32;18.80;99.90
13409;DHT22;6775;49.574;11.170;2022-07-23T03:53:59;18.70;99.90
13409;DHT22;6775;49.574;11.170;2022-07-23T03:56:27;18.70;99.90
13409;DHT22;6775;49.574;11.170;2022-07-23T03:58:57;18.70;99.90
13409;DHT22;6775;49.574;11.170;2022-07-23T04:01:25;18.70;99.90
13409;DHT22;6775;49.574;11.170;2022-07-23T04:03:53;18.70;99.90
13409;DHT22;6775;49.574;11.170;2022-07-23T04:06:21;18.70;99.90
13409;DHT22;6775;49.574;11.170;2022-07-23T04:08:49;18.70;99.90
13409;DHT22;6775;49.574;11.170;2022-07-23T04:11:17;18.70;99.90
13409;DHT22;6775;49.574;11.170;2022-07-23T04:13:45;18.70;99.90
13409;DHT22;6775;49.574;11.170;2022-07-23T04:16:14;18.70;99.90
13409;DHT22;6775;49.574;11.170;2022-07-23T04:18:42;18.80;99.90
13409;DHT22;6775;49.574;11.170;2022-07-23T04:21:10;18.70;99.90
13409;DHT22;6775;49.574;11.170;2022-07-23T04:23:38;18.80;99.90
13409;DHT22;6775;49.574;11.170;2022-07-23T04:26:06;18.80;99.90
13409;DHT22;6775;49.574;11.170;2022-07-23T04:28:34;18.80;99.90
13409;DHT22;6775;49.574;11.170;2022-07-23T04:31:01;18.80;99.90
13409;DHT22;6775;49.574;11.170;2022-07-23T04:33:31;18.90;99.90
13409;DHT22;6775;49.574;11.170;2022-07-23T04:35:59;18.90;99.90
13409;DHT22;6775;49.574;11.170;2022-07-23T04:38:26;18.90;99.90
13409;DHT22;6775;49.574;11.170;2022-07-23T04:40:54;18.90;99.90
13409;DHT22;6775;49.574;11.170;2022-07-23T04:43:22;18.90;99.90
13409;DHT22;6775;49.574;11.170;2022-07-23T04:45:50;19.00;99.90
13409;DHT22;6775;49.574;11.170;2022-07-23T04:48:19;19.00;99.90
13409;DHT22;6775;49.574;11.170;2022-07-23T04:50:48;19.00;99.90
13409;DHT22;6775;49.574;11.170;2022-07-23T04:53:16;19.10;99.90
13409;DHT22;6775;49.574;11.170;2022-07-23T04:55:45;19.10;99.90
13409;DHT22;6775;49.574;11.170;2022-07-23T04:58:13;19.20;99.90
13409;DHT22;6775;49.574;11.170;2022-07-23T05:00:40;19.30;99.90
13409;DHT22;6775;49.574;11.170;2022-07-23T05:03:08;19.30;99.90
13409;DHT22;6775;49.574;11.170;2022-07-23T05:05:36;19.30;99.90
13409;DHT22;6775;49.574;11.170;2022-07-23T05:08:06;19.40;99.90
13409;DHT22;6775;49.574;11.170;2022-07-23T05:10:34;19.50;99.90
13409;DHT22;6775;49.574;11.170;2022-07-23T05:13:01;19.50;99.90
13409;DHT22;6775;49.574;11.170;2022-07-23T05:15:29;19.50;99.90
13409;DHT22;6775;49.574;11.170;2022-07-23T05:17:58;19.60;99.90
13409;DHT22;6775;49.574;11.170;2022-07-23T05:20:25;19.70;99.90
13409;DHT22;6775;49.574;11.170;2022-07-23T05:22:53;19.70;99.90
13409;DHT22;6775;49.574;11.170;2022-07-23T05:25:23;19.80;99.90
13409;DHT22;6775;49.574;11.170;2022-07-23T05:27:50;19.80;99.90
13409;DHT22;6775;49.574;11.170;2022-07-23T05:30:19;19.90;99.90
13409;DHT22;6775;49.574;11.170;2022-07-23T05:32:47;20.00;99.90
13409;DHT22;6775;49.574;11.170;2022-07-23T05:35:16;20.10;99.90
13409;DHT22;6775;49.574;11.170;2022-07-23T05:37:44;20.20;99.90
13409;DHT22;6775;49.574;11.170;2022-07-23T05:40:12;20.30;99.90
13409;DHT22;6775;49.574;11.170;2022-07-23T05:42:41;20.30;99.90
13409;DHT22;6775;49.574;11.170;2022-07-23T05:45:10;20.40;99.90
13409;DHT22;6775;49.574;11.170;2022-07-23T05:47:42;20.50;99.90
13409;DHT22;6775;49.574;11.170;2022-07-23T05:50:11;20.60;99.90
13409;DHT22;6775;49.574;11.170;2022-07-23T05:52:39;20.60;99.90
13409;DHT22;6775;49.574;11.170;2022-07-23T05:55:08;20.70;99.90
13409;DHT22;6775;49.574;11.170;2022-07-23T05:57:36;20.90;99.90
13409;DHT22;6775;49.574;11.170;2022-07-23T06:00:10;21.00;99.90
13409;DHT22;6775;49.574;11.170;2022-07-23T06:02:38;21.10;99.90
13409;DHT22;6775;49.574;11.170;2022-07-23T06:05:07;21.20;99.90
13409;DHT22;6775;49.574;11.170;2022-07-23T06:07:35;21.40;99.90
13409;DHT22;6775;49.574;11.170;2022-07-23T06:10:04;21.50;99.90
13409;DHT22;6775;49.574;11.170;2022-07-23T06:12:32;21.60;99.90
13409;DHT22;6775;49.574;11.170;2022-07-23T06:15:00;21.80;99.90
13409;DHT22;6775;49.574;11.170;2022-07-23T06:17:29;21.80;99.90
13409;DHT22;6775;49.574;11.170;2022-07-23T06:19:57;21.90;99.90
13409;DHT22;6775;49.574;11.170;2022-07-23T06:22:25;22.10;99.90
13409;DHT22;6775;49.574;11.170;2022-07-23T06:24:53;22.10;99.90
13409;DHT22;6775;49.574;11.170;2022-07-23T06:27:21;22.20;99.90
13409;DHT22;6775;49.574;11.170;2022-07-23T06:29:52;22.20;99.90
13409;DHT22;6775;49.574;11.170;2022-07-23T06:32:20;22.40;99.90
13409;DHT22;6775;49.574;11.170;2022-07-23T06:34:50;22.40;99.90
13409;DHT22;6775;49.574;11.170;2022-07-23T06:37:17;22.50;99.90
13409;DHT22;6775;49.574;11.170;2022-07-23T06:39:46;22.70;99.90
13409;DHT22;6775;49.574;11.170;2022-07-23T06:42:14;22.70;99.90
13409;DHT22;6775;49.574;11.170;2022-07-23T06:44:41;22.80;99.90
13409;DHT22;6775;49.574;11.170;2022-07-23T06:47:09;22.90;99.90
13409;DHT22;6775;49.574;11.170;2022-07-23T06:49:38;23.00;99.90
13409;DHT22;6775;49.574;11.170;2022-07-23T06:52:09;23.10;99.90
13409;DHT22;6775;49.574;11.170;2022-07-23T06:54:36;23.20;99.90
13409;DHT22;6775;49.574;11.170;2022-07-23T06:57:04;23.30;99.90
13409;DHT22;6775;49.574;11.170;2022-07-23T06:59:32;23.40;99.90
13409;DHT22;6775;49.574;11.170;2022-07-23T07:02:02;23.60;99.90
13409;DHT22;6775;49.574;11.170;2022-07-23T07:04:30;23.70;99.90
13409;DHT22;6775;49.574;11.170;2022-07-23T07:06:58;23.90;99.90
13409;DHT22;6775;49.574;11.170;2022-07-23T07:09:27;24.10;99.90
13409;DHT22;6775;49.574;11.170;2022-07-23T07:11:55;24.20;99.90
13409;DHT22;6775;49.574;11.170;2022-07-23T07:14:24;24.40;99.90
13409;DHT22;6775;49.574;11.170;2022-07-23T07:16:52;24.40;99.90
13409;DHT22;6775;49.574;11.170;2022-07-23T07:19:19;24.50;99.90
13409;DHT22;6775;49.574;11.170;2022-07-23T07:21:47;24.50;99.90
13409;DHT22;6775;49.574;11.170;2022-07-23T07:24:15;24.50;99.90
13409;DHT22;6775;49.574;11.170;2022-07-23T07:26:44;24.50;99.90
13409;DHT22;6775;49.574;11.170;2022-07-23T07:29:12;24.40;99.90
13409;DHT22;6775;49.574;11.170;2022-07-23T07:31:40;24.40;99.90
13409;DHT22;6775;49.574;11.170;2022-07-23T07:34:08;24.40;99.90
13409;DHT22;6775;49.574;11.170;2022-07-23T07:36:36;24.40;99.90
13409;DHT22;6775;49.574;11.170;2022-07-23T07:39:04;24.40;99.90
13409;DHT22;6775;49.574;11.170;2022-07-23T07:41:33;24.40;99.90
13409;DHT22;6775;49.574;11.170;2022-07-23T07:44:02;24.50;99.90
13409;DHT22;6775;49.574;11.170;2022-07-23T07:46:31;24.60;99.90
13409;DHT22;6775;49.574;11.170;2022-07-23T07:48:59;24.70;99.90
13409;DHT22;6775;49.574;11.170;2022-07-23T07:51:27;24.80;99.90
13409;DHT22;6775;49.574;11.170;2022-07-23T07:53:56;24.90;99.90
13409;DHT22;6775;49.574;11.170;2022-07-23T07:56:24;24.90;99.90
13409;DHT22;6775;49.574;11.170;2022-07-23T07:58:52;25.00;99.90
13409;DHT22;6775;49.574;11.170;2022-07-23T08:01:21;25.00;99.90
13409;DHT22;6775;49.574;11.170;2022-07-23T08:03:51;24.90;99.90
13409;DHT22;6775;49.574;11.170;2022-07-23T08:06:19;24.80;99.90
13409;DHT22;6775;49.574;11.170;2022-07-23T08:08:47;24.70;99.90
13409;DHT22;6775;49.574;11.170;2022-07-23T08:11:15;24.50;99.90
13409;DHT22;6775;49.574;11.170;2022-07-23T08:13:43;24.30;99.90
13409;DHT22;6775;49.574;11.170;2022-07-23T08:16:11;24.10;99.90
13409;DHT22;6775;49.574;11.170;2022-07-23T08:18:40;23.90;99.90
13409;DHT22;6775;49.574;11.170;2022-07-23T08:21:08;23.70;99.90
13409;DHT22;6775;49.574;11.170;2022-07-23T08:23:36;23.40;99.90
13409;DHT22;6775;49.574;11.170;2022-07-23T08:26:04;23.30;99.90
13409;DHT22;6775;49.574;11.170;2022-07-23T08:28:32;23.10;99.90
13409;DHT22;6775;49.574;11.170;2022-07-23T08:31:01;23.00;99.90
13409;DHT22;6775;49.574;11.170;2022-07-23T08:33:29;22.90;99.90
13409;DHT22;6775;49.574;11.170;2022-07-23T08:36:02;22.80;99.90
13409;DHT22;6775;49.574;11.170;2022-07-23T08:38:31;22.70;99.90
13409;DHT22;6775;49.574;11.170;2022-07-23T08:40:59;22.50;99.90
13409;DHT22;6775;49.574;11.170;2022-07-23T08:43:28;22.50;99.90
13409;DHT22;6775;49.574;11.170;2022-07-23T08:45:57;22.40;99.90
13409;DHT22;6775;49.574;11.170;2022-07-23T08:48:28;22.30;99.90
13409;DHT22;6775;49.574;11.170;2022-07-23T08:50:59;22.30;99.90
13409;DHT22;6775;49.574;11.170;2022-07-23T08:53:30;22.10;99.90
13409;DHT22;6775;49.574;11.170;2022-07-23T08:56:00;22.00;99.90
13409;DHT22;6775;49.574;11.170;2022-07-23T08:58:29;22.00;99.90
13409;DHT22;6775;49.574;11.170;2022-07-23T09:00:58;21.90;99.90
13409;DHT22;6775;49.574;11.170;2022-07-23T09:03:27;21.70;99.90
13409;DHT22;6775;49.574;11.170;2022-07-23T09:05:56;21.70;99.90
13409;DHT22;6775;49.574;11.170;2022-07-23T09:08:26;21.50;99.90
13409;DHT22;6775;49.574;11.170;2022-07-23T09:11:04;21.50;99.90
13409;DHT22;6775;49.574;11.170;2022-07-23T09:13:34;21.50;99.90
13409;DHT22;6775;49.574;11.170;2022-07-23T09:16:06;21.40;99.90
13409;DHT22;6775;49.574;11.170;2022-07-23T09:18:43;21.40;99.90
13409;DHT22;6775;49.574;11.170;2022-07-23T09:21:17;21.40;99.90
13409;DHT22;6775;49.574;11.170;2022-07-23T09:23:47;21.40;99.90
13409;DHT22;6775;49.574;11.170;2022-07-23T09:26:25;21.40;99.90
13409;DHT22;6775;49.574;11.170;2022-07-23T09:29:00;21.40;99.90
13409;DHT22;6775;49.574;11.170;2022-07-23T09:31:32;21.40;99.90
13409;DHT22;6775;49.574;11.170;2022-07-23T09:34:19;21.40;99.90
13409;DHT22;6775;49.574;11.170;2022-07-23T09:36:51;21.40;99.90
13409;DHT22;6775;49.574;11.170;2022-07-23T09:39:26;21.50;99.90
13409;DHT22;6775;49.574;11.170;2022-07-23T09:41:55;21.40;99.90
13409;DHT22;6775;49.574;11.170;2022-07-23T09:44:24;21.40;99.90
13409;DHT22;6775;49.574;11.170;2022-07-23T09:46:58;21.40;99.90
13409;DHT22;6775;49.574;11.170;2022-07-23T09:49:27;21.50;99.90
13409;DHT22;6775;49.574;11.170;2022-07-23T09:51:57;21.40;99.90
13409;DHT22;6775;49.574;11.170;2022-07-23T09:54:31;21.30;99.90
13409;DHT22;6775;49.574;11.170;2022-07-23T09:57:04;21.40;99.90
13409;DHT22;6775;49.574;11.170;2022-07-23T09:59:34;21.30;99.90
13409;DHT22;6775;49.574;11.170;2022-07-23T10:02:03;21.40;99.90
13409;DHT22;6775;49.574;11.170;2022-07-23T10:04:32;21.30;99.90
13409;DHT22;6775;49.574;11.170;2022-07-23T10:07:04;21.30;99.90
13409;DHT22;6775;49.574;11.170;2022-07-23T10:09:36;21.20;99.90
13409;DHT22;6775;49.574;11.170;2022-07-23T10:12:11;21.10;99.90
13409;DHT22;6775;49.574;11.170;2022-07-23T10:14:53;21.10;99.90
13409;DHT22;6775;49.574;11.170;2022-07-23T10:17:21;21.00;99.90
13409;DHT22;6775;49.574;11.170;2022-07-23T10:19:49;20.90;99.90
13409;DHT22;6775;49.574;11.170;2022-07-23T10:22:20;20.80;99.90
13409;DHT22;6775;49.574;11.170;2022-07-23T10:24:56;20.70;99.90
13409;DHT22;6775;49.574;11.170;2022-07-23T10:27:42;20.70;99.90
13409;DHT22;6775;49.574;11.170;2022-07-23T10:30:15;20.60;99.90
13409;DHT22;6775;49.574;11.170;2022-07-23T10:32:53;20.60;99.90
13409;DHT22;6775;49.574;11.170;2022-07-23T10:35:29;20.60;99.90
13409;DHT22;6775;49.574;11.170;2022-07-23T10:38:05;20.60;99.90
13409;DHT22;6775;49.574;11.170;2022-07-23T10:40:35;20.60;99.90
13409;DHT22;6775;49.574;11.170;2022-07-23T10:43:13;20.60;99.90
13409;DHT22;6775;49.574;11.170;2022-07-23T10:45:47;20.50;99.90
13409;DHT22;6775;49.574;11.170;2022-07-23T10:48:17;20.50;99.90
13409;DHT22;6775;49.574;11.170;2022-07-23T10:51:07;20.60;99.90
13409;DHT22;6775;49.574;11.170;2022-07-23T10:53:55;20.60;99.90
13409;DHT22;6775;49.574;11.170;2022-07-23T10:56:49;20.70;99.90
13409;DHT22;6775;49.574;11.170;2022-07-23T10:59:19;20.80;99.90
13409;DHT22;6775;49.574;11.170;2022-07-23T11:01:47;20.90;99.90
13409;DHT22;6775;49.574;11.170;2022-07-23T11:04:15;21.00;99.90
13409;DHT22;6775;49.574;11.170;2022-07-23T11:07:07;21.00;99.90
13409;DHT22;6775;49.574;11.170;2022-07-23T11:09:39;21.00;99.90
13409;DHT22;6775;49.574;11.170;2022-07-23T11:12:32;21.00;99.90
13409;DHT22;6775;49.574;11.170;2022-07-23T11:15:05;21.10;99.90
13409;DHT22;6775;49.574;11.170;2022-07-23T11:17:36;21.00;99.90
13409;DHT22;6775;49.574;11.170;2022-07-23T11:20:19;21.10;99.90
13409;DHT22;6775;49.574;11.170;2022-07-23T11:22:50;21.00;99.90
13409;DHT22;6775;49.574;11.170;2022-07-23T11:25:35;20.90;99.90
13409;DHT22;6775;49.574;11.170;2022-07-23T11:28:09;20.90;99.90
13409;DHT22;6775;49.574;11.170;2022-07-23T11:30:40;20.90;99.90
13409;DHT22;6775;49.574;11.170;2022-07-23T11:33:19;20.90;99.90
13409;DHT22;6775;49.574;11.170;2022-07-23T11:35:51;20.80;99.90
13409;DHT22;6775;49.574;11.170;2022-07-23T11:38:27;20.80;99.90
13409;DHT22;6775;49.574;11.170;2022-07-23T11:40:55;20.80;99.90
13409;DHT22;6775;49.574;11.170;2022-07-23T11:43:25;20.80;99.90
13409;DHT22;6775;49.574;11.170;2022-07-23T11:45:57;20.80;99.90
13409;DHT22;6775;49.574;11.170;2022-07-23T11:48:27;20.90;99.90
13409;DHT22;6775;49.574;11.170;2022-07-23T11:50:56;21.00;99.90
13409;DHT22;6775;49.574;11.170;2022-07-23T11:53:25;21.10;99.90
13409;DHT22;6775;49.574;11.170;2022-07-23T11:55:56;21.00;99.90
13409;DHT22;6775;49.574;11.170;2022-07-23T11:58:29;21.20;99.90
13409;DHT22;6775;49.574;11.170;2022-07-23T12:00:59;21.30;99.90
13409;DHT22;6775;49.574;11.170;2022-07-23T12:03:27;21.40;99.90
13409;DHT22;6775;49.574;11.170;2022-07-23T12:05:57;21.40;99.90
13409;DHT22;6775;49.574;11.170;2022-07-23T12:08:25;21.50;99.90
13409;DHT22;6775;49.574;11.170;2022-07-23T12:10:53;21.50;99.90
13409;DHT22;6775;49.574;11.170;2022-07-23T12:13:21;21.60;99.90
13409;DHT22;6775;49.574;11.170;2022-07-23T12:15:51;21.70;99.90
13409;DHT22;6775;49.574;11.170;2022-07-23T12:18:24;21.80;99.90
13409;DHT22;6775;49.574;11.170;2022-07-23T12:20:55;22.00;99.90
13409;DHT22;6775;49.574;11.170;2022-07-23T12:23:25;22.10;99.90
13409;DHT22;6775;49.574;11.170;2022-07-23T12:25:53;22.40;99.90
13409;DHT22;6775;49.574;11.170;2022-07-23T12:28:27;22.60;99.90
13409;DHT22;6775;49.574;11.170;2022-07-23T12:30:57;22.70;99.90
13409;DHT22;6775;49.574;11.170;2022-07-23T12:33:27;22.90;99.90
13409;DHT22;6775;49.574;11.170;2022-07-23T12:35:57;23.20;99.90
13409;DHT22;6775;49.574;11.170;2022-07-23T12:38:27;23.40;99.90
13409;DHT22;6775;49.574;11.170;2022-07-23T12:40:57;23.60;99.90
13409;DHT22;6775;49.574;11.170;2022-07-23T12:43:28;23.80;99.90
13409;DHT22;6775;49.574;11.170;2022-07-23T12:46:03;23.90;99.90
13409;DHT22;6775;49.574;11.170;2022-07-23T12:48:33;24.10;99.90
13409;DHT22;6775;49.574;11.170;2022-07-23T12:51:06;24.20;99.90
13409;DHT22;6775;49.574;11.170;2022-07-23T12:53:38;24.30;99.90
13409;DHT22;6775;49.574;11.170;2022-07-23T12:56:08;24.40;99.90
13409;DHT22;6775;49.574;11.170;2022-07-23T12:58:42;24.40;99.90
13409;DHT22;6775;49.574;11.170;2022-07-23T13:01:22;24.40;99.90
13409;DHT22;6775;49.574;11.170;2022-07-23T13:03:59;24.50;99.90
13409;DHT22;6775;49.574;11.170;2022-07-23T13:06:29;24.60;99.90
13409;DHT22;6775;49.574;11.170;2022-07-23T13:08:58;24.70;99.90
13409;DHT22;6775;49.574;11.170;2022-07-23T13:11:28;24.80;99.90
13409;DHT22;6775;49.574;11.170;2022-07-23T13:13:56;24.90;99.90
13409;DHT22;6775;49.574;11.170;2022-07-23T13:16:24;25.10;99.90
13409;DHT22;6775;49.574;11.170;2022-07-23T13:18:54;25.30;99.90
13409;DHT22;6775;49.574;11.170;2022-07-23T13:21:27;25.40;99.90
13409;DHT22;6775;49.574;11.170;2022-07-23T13:23:55;25.50;99.90
13409;DHT22;6775;49.574;11.170;2022-07-23T13:26:24;25.60;99.90
13409;DHT22;6775;49.574;11.170;2022-07-23T13:28:52;25.60;99.90
13409;DHT22;6775;49.574;11.170;2022-07-23T13:31:21;25.60;99.90
13409;DHT22;6775;49.574;11.170;2022-07-23T13:33:50;25.80;99.90
13409;DHT22;6775;49.574;11.170;2022-07-23T13:36:18;25.80;99.90
13409;DHT22;6775;49.574;11.170;2022-07-23T13:38:47;25.70;99.90
13409;DHT22;6775;49.574;11.170;2022-07-23T13:41:17;25.70;99.90
13409;DHT22;6775;49.574;11.170;2022-07-23T13:43:45;25.60;99.90
13409;DHT22;6775;49.574;11.170;2022-07-23T13:46:13;25.60;99.90
13409;DHT22;6775;49.574;11.170;2022-07-23T13:48:41;25.80;99.90
13409;DHT22;6775;49.574;11.170;2022-07-23T13:51:09;25.90;99.90
13409;DHT22;6775;49.574;11.170;2022-07-23T13:53:38;26.00;99.90
13409;DHT22;6775;49.574;11.170;2022-07-23T13:56:08;26.10;99.90
13409;DHT22;6775;49.574;11.170;2022-07-23T13:58:35;26.30;99.90
13409;DHT22;6775;49.574;11.170;2022-07-23T14:01:03;26.40;99.90
13409;DHT22;6775;49.574;11.170;2022-07-23T14:03:31;26.40;99.90
13409;DHT22;6775;49.574;11.170;2022-07-23T14:06:00;26.50;99.90
13409;DHT22;6775;49.574;11.170;2022-07-23T14:08:28;26.60;99.90
13409;DHT22;6775;49.574;11.170;2022-07-23T14:10:56;26.60;99.90
13409;DHT22;6775;49.574;11.170;2022-07-23T14:13:26;26.60;99.90
13409;DHT22;6775;49.574;11.170;2022-07-23T14:15:56;26.50;99.90
13409;DHT22;6775;49.574;11.170;2022-07-23T14:18:24;26.50;99.90
13409;DHT22;6775;49.574;11.170;2022-07-23T14:20:59;26.40;99.90
13409;DHT22;6775;49.574;11.170;2022-07-23T14:23:27;26.30;99.90
13409;DHT22;6775;49.574;11.170;2022-07-23T14:25:56;26.40;99.90
13409;DHT22;6775;49.574;11.170;2022-07-23T14:28:26;26.40;99.90
13409;DHT22;6775;49.574;11.170;2022-07-23T14:30:54;26.40;99.90
13409;DHT22;6775;49.574;11.170;2022-07-23T14:33:22;26.50;99.90
13409;DHT22;6775;49.574;11.170;2022-07-23T14:35:52;26.60;99.90
13409;DHT22;6775;49.574;11.170;2022-07-23T14:38:20;26.80;99.90
13409;DHT22;6775;49.574;11.170;2022-07-23T14:40:48;26.80;99.90
13409;DHT22;6775;49.574;11.170;2022-07-23T14:43:15;26.90;99.90
13409;DHT22;6775;49.574;11.170;2022-07-23T14:45:45;26.90;99.90
13409;DHT22;6775;49.574;11.170;2022-07-23T14:48:15;26.80;99.90
13409;DHT22;6775;49.574;11.170;2022-07-23T14:50:43;26.80;99.90
13409;DHT22;6775;49.574;11.170;2022-07-23T14:53:11;26.70;99.90
13409;DHT22;6775;49.574;11.170;2022-07-23T14:55:39;26.70;99.90
13409;DHT22;6775;49.574;11.170;2022-07-23T14:58:07;26.70;99.90
13409;DHT22;6775;49.574;11.170;2022-07-23T15:00:35;26.80;99.90
13409;DHT22;6775;49.574;11.170;2022-07-23T15:03:05;26.90;99.90
13409;DHT22;6775;49.574;11.170;2022-07-23T15:05:33;27.00;99.90
13409;DHT22;6775;49.574;11.170;2022-07-23T15:08:02;27.10;99.90
13409;DHT22;6775;49.574;11.170;2022-07-23T15:10:35;27.20;99.90
13409;DHT22;6775;49.574;11.170;2022-07-23T15:13:04;27.30;99.90
13409;DHT22;6775;49.574;11.170;2022-07-23T15:15:34;27.30;99.90
13409;DHT22;6775;49.574;11.170;2022-07-23T15:18:04;27.30;99.90
13409;DHT22;6775;49.574;11.170;2022-07-23T15:20:32;27.30;99.90
13409;DHT22;6775;49.574;11.170;2022-07-23T15:23:07;27.30;99.90
13409;DHT22;6775;49.574;11.170;2022-07-23T15:25:36;27.30;99.90
13409;DHT22;6775;49.574;11.170;2022-07-23T15:28:04;27.30;99.90
13409;DHT22;6775;49.574;11.170;2022-07-23T15:30:35;27.40;99.90
13409;DHT22;6775;49.574;11.170;2022-07-23T15:33:05;27.50;99.90
13409;DHT22;6775;49.574;11.170;2022-07-23T15:35:36;27.50;98.80
13409;DHT22;6775;49.574;11.170;2022-07-23T15:38:04;27.60;98.20
13409;DHT22;6775;49.574;11.170;2022-07-23T15:40:39;27.50;97.90
13409;DHT22;6775;49.574;11.170;2022-07-23T15:43:07;27.50;97.20
13409;DHT22;6775;49.574;11.170;2022-07-23T15:45:37;27.40;96.80